TimeMST,TemperatureF,Dew PointF,Humidity,Sea Level PressureIn,VisibilityMPH,Wind Direction,Wind SpeedMPH,Gust SpeedMPH,PrecipitationIn,Events,Conditions,WindDirDegrees,DateUTC
12:56 AM,3.9,-0.0,84,30.72,-9999.0,NW,3.5,-,N/A,,Unknown,310,2012-11-23 07:56:00
1:56 AM,7.0,3.9,87,30.69,-9999.0,Calm,Calm,-,N/A,,Unknown,0,2012-11-23 08:56:00
2:56 AM,7.0,3.9,87,30.71,-9999.0,WNW,3.5,-,N/A,,Unknown,290,2012-11-23 09:56:00
3:56 AM,6.1,1.9,83,30.71,-9999.0,Calm,Calm,-,N/A,,Unknown,0,2012-11-23 10:56:00
4:56 AM,6.1,1.9,83,30.75,-9999.0,Calm,Calm,-,N/A,,Unknown,0,2012-11-23 11:56:00
5:56 AM,3.9,-0.0,84,30.77,-9999.0,NW,3.5,-,N/A,,Unknown,310,2012-11-23 12:56:00
6:56 AM,3.0,-0.9,84,30.79,-9999.0,Calm,Calm,-,N/A,,Unknown,0,2012-11-23 13:56:00
7:56 AM,3.9,1.0,88,30.80,-9999.0,Calm,Calm,-,N/A,,Unknown,0,2012-11-23 14:56:00
8:56 AM,10.9,7.0,84,30.77,-9999.0,Calm,Calm,-,N/A,,Unknown,0,2012-11-23 15:56:00
9:56 AM,19.0,16.0,88,30.73,-9999.0,Calm,Calm,-,N/A,,Unknown,0,2012-11-23 16:56:00
10:56 AM,23.0,17.1,78,30.72,-9999.0,Calm,Calm,-,N/A,,Unknown,0,2012-11-23 17:56:00
11:56 AM,26.1,18.0,71,30.66,-9999.0,Calm,Calm,-,N/A,,Unknown,0,2012-11-23 18:56:00
12:56 PM,30.9,14.0,50,30.59,-9999.0,ESE,3.5,-,N/A,,Unknown,110,2012-11-23 19:56:00
1:56 PM,34.0,15.1,46,30.53,-9999.0,Calm,Calm,-,N/A,,Unknown,0,2012-11-23 20:56:00
2:56 PM,35.1,14.0,42,30.51,-9999.0,Variable,4.6,-,N/A,,Unknown,0,2012-11-23 21:56:00
3:56 PM,32.0,16.0,52,30.53,-9999.0,Calm,Calm,-,N/A,,Unknown,0,2012-11-23 22:56:00
4:56 PM,28.0,21.9,78,30.54,-9999.0,Calm,Calm,-,N/A,,Unknown,0,2012-11-23 23:56:00
5:56 PM,26.1,21.9,84,30.56,-9999.0,Calm,Calm,-,N/A,,Unknown,0,2012-11-24 00:56:00
6:56 PM,21.9,19.0,89,30.57,-9999.0,Calm,Calm,-,N/A,,Unknown,0,2012-11-24 01:56:00
7:56 PM,21.0,18.0,88,30.57,-9999.0,NW,3.5,-,N/A,,Unknown,310,2012-11-24 02:56:00
8:56 PM,19.9,17.1,89,30.51,-9999.0,Calm,Calm,-,N/A,,Unknown,0,2012-11-24 03:56:00
9:56 PM,18.0,15.1,88,30.45,-9999.0,WNW,3.5,-,N/A,,Unknown,290,2012-11-24 04:56:00
10:56 PM,17.1,14.0,88,30.44,-9999.0,Calm,Calm,-,N/A,,Unknown,0,2012-11-24 05:56:00
11:56 PM,17.1,14.0,88,30.40,-9999.0,Calm,Calm,-,N/A,,Unknown,0,2012-11-24 06:56:00